createdAt,value
2023-03-29T00:00:25.715Z,24.40
2023-03-29T00:02:30.735Z,24.50
2023-03-29T00:04:33.976Z,24.40
2023-03-29T00:06:35.815Z,24.30
2023-03-29T00:08:38.299Z,24.20
2023-03-29T00:10:41.172Z,24.20
2023-03-29T00:12:43.020Z,24.10
2023-03-29T00:14:44.656Z,24.00
2023-03-29T00:16:46.842Z,24.00
2023-03-29T00:18:48.754Z,24.00
2023-03-29T00:20:57.929Z,24.00
2023-03-29T00:22:59.682Z,24.20
2023-03-29T00:25:01.360Z,24.00
2023-03-29T00:27:03.120Z,24.10
2023-03-29T00:29:04.830Z,24.20
2023-03-29T00:31:09.580Z,24.20
2023-03-29T00:33:12.885Z,24.20
2023-03-29T00:35:14.693Z,24.10
2023-03-29T00:37:19.491Z,24.10
2023-03-29T00:39:21.810Z,24.20
2023-03-29T00:41:23.596Z,24.10
2023-03-29T00:43:25.861Z,24.20
2023-03-29T00:45:33.806Z,24.20
2023-03-29T00:47:51.402Z,24.20
2023-03-29T00:49:55.884Z,24.20
2023-03-29T00:51:58.047Z,24.00
2023-03-29T00:54:05.154Z,24.10
2023-03-29T00:56:14.139Z,24.20
2023-03-29T00:58:21.225Z,24.70
2023-03-29T01:00:28.090Z,24.10
2023-03-29T01:02:34.450Z,24.10
2023-03-29T01:04:46.666Z,24.00
2023-03-29T01:07:07.297Z,24.10
2023-03-29T01:09:14.610Z,24.00
2023-03-29T01:11:41.411Z,23.90
2023-03-29T01:14:05.497Z,24.00
2023-03-29T01:16:13.887Z,23.80
2023-03-29T01:18:15.903Z,24.30
2023-03-29T01:20:30.689Z,23.70
2023-03-29T01:23:06.455Z,23.70
2023-03-29T01:25:26.173Z,23.80
2023-03-29T01:27:36.168Z,23.70
2023-03-29T01:29:49.985Z,23.50
2023-03-29T01:32:01.897Z,23.60
2023-03-29T01:34:10.622Z,23.60
2023-03-29T01:36:27.078Z,23.60
2023-03-29T01:38:36.337Z,23.60
2023-03-29T01:40:38.145Z,23.60
2023-03-29T01:43:00.603Z,23.50
2023-03-29T01:45:12.621Z,23.50
2023-03-29T01:47:26.294Z,23.50
2023-03-29T01:49:38.936Z,23.50
2023-03-29T01:51:46.168Z,23.60
2023-03-29T01:53:56.258Z,23.50
2023-03-29T01:56:12.720Z,23.30
2023-03-29T01:58:17.026Z,23.40
2023-03-29T02:00:24.699Z,23.30
2023-03-29T02:02:28.633Z,23.30
2023-03-29T02:04:37.096Z,23.20
2023-03-29T02:06:40.929Z,23.30
2023-03-29T02:08:44.921Z,23.20
2023-03-29T02:10:49.498Z,23.10
2023-03-29T02:12:51.203Z,23.10
2023-03-29T02:14:52.892Z,23.20
2023-03-29T02:16:54.591Z,23.10
2023-03-29T02:18:57.660Z,23.10
2023-03-29T02:20:59.633Z,23.00
2023-03-29T02:23:28.542Z,23.00
2023-03-29T02:25:32.430Z,23.00
2023-03-29T02:27:34.511Z,23.00
2023-03-29T02:29:38.630Z,22.80
2023-03-29T02:31:49.373Z,22.90
2023-03-29T02:33:58.756Z,22.80
2023-03-29T02:36:10.195Z,22.90
2023-03-29T02:38:14.634Z,22.80
2023-03-29T02:40:17.940Z,22.90
2023-03-29T02:42:20.630Z,22.70
2023-03-29T02:44:30.983Z,22.90
2023-03-29T02:46:37.768Z,22.90
2023-03-29T02:48:40.440Z,22.90
2023-03-29T02:50:45.104Z,22.90
2023-03-29T02:52:59.102Z,22.90
2023-03-29T02:55:03.212Z,22.90
2023-03-29T02:57:08.791Z,22.90
2023-03-29T02:59:12.177Z,22.90
2023-03-29T03:01:17.909Z,22.90
2023-03-29T03:03:20.700Z,23.00
2023-03-29T03:05:25.991Z,23.10
2023-03-29T03:07:28.680Z,23.10
2023-03-29T03:09:30.856Z,23.10
2023-03-29T03:11:34.215Z,23.00
2023-03-29T03:13:38.143Z,23.00
2023-03-29T03:15:45.326Z,23.10
2023-03-29T03:17:49.252Z,23.00
2023-03-29T03:19:54.478Z,23.00
2023-03-29T03:21:57.247Z,23.00
2023-03-29T03:23:59.102Z,23.00
2023-03-29T03:26:00.952Z,23.10
2023-03-29T03:28:04.965Z,23.10
2023-03-29T03:30:08.498Z,23.00
2023-03-29T03:32:24.703Z,23.00
2023-03-29T03:34:48.755Z,23.00
2023-03-29T03:36:50.552Z,23.00
2023-03-29T03:38:53.073Z,23.00
2023-03-29T03:40:57.059Z,22.90
2023-03-29T03:42:59.505Z,23.10
2023-03-29T03:45:01.785Z,23.10
2023-03-29T03:47:22.093Z,23.00
2023-03-29T03:49:24.318Z,22.90
2023-03-29T03:51:28.580Z,22.90
2023-03-29T03:53:33.811Z,22.90
2023-03-29T03:55:42.769Z,23.00
2023-03-29T03:57:49.902Z,23.00
2023-03-29T03:59:56.188Z,23.10
2023-03-29T04:02:15.572Z,23.00
2023-03-29T04:04:23.265Z,22.90
2023-03-29T04:06:33.253Z,23.00
2023-03-29T04:09:10.521Z,22.90
2023-03-29T04:11:15.306Z,22.90
2023-03-29T04:13:17.666Z,22.90
2023-03-29T04:15:39.487Z,23.00
2023-03-29T04:17:47.016Z,22.90
2023-03-29T04:20:12.849Z,23.00
2023-03-29T04:22:15.801Z,23.00
2023-03-29T04:24:18.360Z,22.90
2023-03-29T04:26:34.451Z,23.00
2023-03-29T04:28:43.969Z,23.00
2023-03-29T04:30:53.008Z,22.90
2023-03-29T04:33:23.815Z,23.00
2023-03-29T04:35:35.913Z,23.10
2023-03-29T04:37:40.278Z,23.00
2023-03-29T04:39:45.624Z,23.30
2023-03-29T04:41:48.403Z,23.10
2023-03-29T04:44:16.140Z,23.00
2023-03-29T04:46:18.179Z,23.10
2023-03-29T04:48:52.373Z,23.20
2023-03-29T04:51:07.185Z,23.10
2023-03-29T04:53:11.288Z,23.10
2023-03-29T04:55:13.508Z,23.20
2023-03-29T04:57:20.493Z,23.20
2023-03-29T04:59:46.349Z,23.20
2023-03-29T05:02:04.771Z,23.20
2023-03-29T05:04:06.669Z,23.20
2023-03-29T05:06:14.355Z,23.20
2023-03-29T05:08:16.909Z,23.20
2023-03-29T05:10:49.731Z,23.20
2023-03-29T05:12:53.822Z,23.30
2023-03-29T05:14:57.343Z,23.20
2023-03-29T05:17:01.367Z,23.30
2023-03-29T05:19:06.373Z,23.20
2023-03-29T05:21:11.666Z,23.30
2023-03-29T05:23:17.486Z,23.20
2023-03-29T05:25:38.013Z,23.10
2023-03-29T05:27:42.299Z,23.00
2023-03-29T05:29:48.398Z,23.10
2023-03-29T05:32:04.934Z,23.10
2023-03-29T05:34:08.364Z,23.10
2023-03-29T05:36:19.193Z,23.10
2023-03-29T05:38:24.964Z,23.00
2023-03-29T05:40:31.698Z,22.80
2023-03-29T05:42:52.884Z,22.70
2023-03-29T05:44:57.450Z,22.70
2023-03-29T05:46:59.253Z,22.70
2023-03-29T05:49:01.634Z,22.70
2023-03-29T05:51:29.851Z,22.70
2023-03-29T05:53:32.145Z,22.70
2023-03-29T05:55:35.285Z,22.80
2023-03-29T05:57:40.435Z,22.80
2023-03-29T05:59:42.546Z,22.80
2023-03-29T06:01:48.041Z,22.70
2023-03-29T06:03:53.521Z,22.80
2023-03-29T06:06:02.386Z,22.70
2023-03-29T06:08:04.570Z,22.70
2023-03-29T06:10:20.903Z,22.80
2023-03-29T06:12:27.942Z,22.90
2023-03-29T06:14:36.380Z,23.00
2023-03-29T06:16:51.873Z,23.00
2023-03-29T06:18:54.108Z,23.00
2023-03-29T06:20:56.261Z,23.10
2023-03-29T06:23:00.416Z,23.30
2023-03-29T06:25:02.509Z,23.30
2023-03-29T06:27:07.366Z,23.40
2023-03-29T06:29:09.106Z,23.30
2023-03-29T06:31:14.332Z,23.40
2023-03-29T06:33:21.295Z,23.30
2023-03-29T06:35:44.869Z,23.30
2023-03-29T06:37:49.893Z,23.40
2023-03-29T06:40:10.549Z,23.30
2023-03-29T06:42:21.648Z,23.30
2023-03-29T06:44:42.403Z,23.40
2023-03-29T06:46:55.746Z,23.40
2023-03-29T06:49:01.409Z,23.50
2023-03-29T06:51:18.239Z,23.60
2023-03-29T06:53:21.991Z,23.60
2023-03-29T06:55:31.556Z,23.60
2023-03-29T06:57:38.774Z,23.90
2023-03-29T06:59:40.504Z,23.90
2023-03-29T07:01:56.836Z,23.90
2023-03-29T07:04:09.302Z,24.00
2023-03-29T07:06:31.423Z,24.00
2023-03-29T07:08:35.121Z,23.20
2023-03-29T07:10:43.352Z,23.40
2023-03-29T07:13:05.810Z,23.70
2023-03-29T07:15:08.707Z,23.80
2023-03-29T07:17:30.699Z,24.10
2023-03-29T07:19:33.098Z,24.10
2023-03-29T07:22:05.971Z,24.10
2023-03-29T07:24:19.318Z,24.10
2023-03-29T07:26:28.786Z,24.40
2023-03-29T07:28:32.515Z,24.30
2023-03-29T07:30:34.172Z,24.60
2023-03-29T07:32:52.262Z,24.80
2023-03-29T07:35:09.200Z,25.00
2023-03-29T07:37:11.006Z,25.10
2023-03-29T07:39:15.667Z,25.30
2023-03-29T07:41:25.518Z,25.50
2023-03-29T07:43:37.332Z,25.40
2023-03-29T07:45:43.969Z,25.70
2023-03-29T07:47:48.914Z,25.60
2023-03-29T07:49:52.125Z,25.60
2023-03-29T07:51:56.598Z,25.70
2023-03-29T07:53:59.768Z,25.70
2023-03-29T07:56:17.998Z,25.70
2023-03-29T07:58:35.802Z,25.80
2023-03-29T08:00:38.135Z,25.80
2023-03-29T08:02:58.473Z,25.90
2023-03-29T08:05:00.983Z,25.80
2023-03-29T08:07:22.004Z,25.80
2023-03-29T08:09:44.997Z,25.80
2023-03-29T08:11:46.833Z,26.10
2023-03-29T08:14:02.532Z,26.30
2023-03-29T08:16:23.550Z,26.30
2023-03-29T08:18:34.852Z,26.60
2023-03-29T08:20:37.679Z,26.50
2023-03-29T08:22:40.349Z,26.50
2023-03-29T08:25:01.686Z,26.50
2023-03-29T08:27:08.474Z,26.50
2023-03-29T08:29:11.679Z,26.60
2023-03-29T08:31:13.495Z,26.90
2023-03-29T08:33:18.443Z,27.00
2023-03-29T08:35:25.020Z,26.90
2023-03-29T08:37:47.155Z,27.10
2023-03-29T08:39:53.019Z,27.00
2023-03-29T08:42:37.547Z,27.10
2023-03-29T08:45:29.714Z,27.00
2023-03-29T08:48:14.825Z,27.00
2023-03-29T08:50:19.594Z,27.10
2023-03-29T08:52:36.149Z,27.10
2023-03-29T08:54:52.008Z,27.40
2023-03-29T08:57:21.868Z,27.40
2023-03-29T08:59:33.093Z,27.50
2023-03-29T09:01:37.421Z,27.80
2023-03-29T09:03:49.694Z,27.80
2023-03-29T09:06:09.683Z,28.00
2023-03-29T09:08:17.241Z,27.90
2023-03-29T09:10:25.379Z,27.70
2023-03-29T09:12:36.729Z,27.60
2023-03-29T09:15:02.663Z,27.80
2023-03-29T09:17:29.446Z,27.80
2023-03-29T09:19:55.004Z,27.90
2023-03-29T09:22:24.292Z,27.80
2023-03-29T09:24:44.242Z,27.70
2023-03-29T09:27:18.350Z,27.60
2023-03-29T09:29:47.341Z,27.40
2023-03-29T09:31:50.180Z,27.30
2023-03-29T09:34:03.379Z,27.10
2023-03-29T09:36:34.081Z,27.00
2023-03-29T09:38:43.349Z,26.80
2023-03-29T09:40:51.311Z,26.40
2023-03-29T09:42:59.415Z,26.00
2023-03-29T09:45:09.250Z,25.90
2023-03-29T09:47:41.329Z,25.70
2023-03-29T09:49:55.660Z,25.70
2023-03-29T09:52:01.701Z,25.80
2023-03-29T09:54:04.043Z,25.60
2023-03-29T09:56:19.020Z,25.20
2023-03-29T09:58:31.607Z,25.20
2023-03-29T10:00:33.349Z,25.10
2023-03-29T10:02:35.204Z,25.30
2023-03-29T10:04:40.344Z,25.30
2023-03-29T10:06:49.520Z,25.40
2023-03-29T10:08:58.846Z,25.30
2023-03-29T10:11:34.736Z,25.30
2023-03-29T10:13:49.220Z,25.10
2023-03-29T10:16:09.153Z,25.10
2023-03-29T10:18:13.729Z,25.20
2023-03-29T10:20:19.875Z,25.00
2023-03-29T10:22:37.481Z,24.70
2023-03-29T10:24:39.242Z,24.60
2023-03-29T10:26:41.544Z,24.40
2023-03-29T10:28:43.521Z,24.60
2023-03-29T10:30:52.348Z,24.50
2023-03-29T10:33:01.642Z,24.20
2023-03-29T10:35:18.230Z,23.50
2023-03-29T10:37:21.089Z,23.30
2023-03-29T10:39:24.938Z,23.10
2023-03-29T10:41:28.087Z,23.10
2023-03-29T10:43:38.283Z,22.70
2023-03-29T10:45:42.580Z,22.90
2023-03-29T10:47:45.432Z,22.80
2023-03-29T10:49:56.963Z,22.50
2023-03-29T10:51:58.714Z,21.90
2023-03-29T10:54:01.342Z,21.80
2023-03-29T10:56:22.924Z,21.90
2023-03-29T10:58:52.003Z,21.90
2023-03-29T11:01:00.941Z,22.00
2023-03-29T11:03:51.569Z,22.00
2023-03-29T11:06:07.695Z,22.10
2023-03-29T11:08:42.146Z,21.70
2023-03-29T11:11:07.334Z,21.70
2023-03-29T11:13:36.115Z,21.50
2023-03-29T11:16:07.138Z,21.30
2023-03-29T11:18:37.278Z,21.40
2023-03-29T11:21:08.432Z,21.60
2023-03-29T11:23:30.204Z,22.20
2023-03-29T11:25:44.124Z,22.20
2023-03-29T11:27:58.957Z,22.10
2023-03-29T11:30:05.860Z,21.60
2023-03-29T11:32:18.986Z,21.30
2023-03-29T11:34:29.445Z,21.80
2023-03-29T11:37:01.399Z,22.00
2023-03-29T11:39:10.603Z,22.10
2023-03-29T11:41:23.300Z,21.30
2023-03-29T11:43:42.219Z,21.70
2023-03-29T11:45:53.026Z,21.60
2023-03-29T11:47:56.615Z,21.90
2023-03-29T11:50:06.154Z,21.30
2023-03-29T11:52:18.534Z,21.70
2023-03-29T11:54:35.871Z,20.70
2023-03-29T11:56:48.189Z,21.00
2023-03-29T11:58:57.890Z,20.40
2023-03-29T12:01:06.169Z,20.40
2023-03-29T12:03:34.368Z,20.30
2023-03-29T12:05:48.079Z,20.70
2023-03-29T12:07:56.235Z,20.60
2023-03-29T12:10:16.722Z,20.80
2023-03-29T12:12:44.416Z,20.90
2023-03-29T12:15:21.504Z,21.10
2023-03-29T12:17:47.034Z,21.00
2023-03-29T12:20:08.027Z,21.10
2023-03-29T12:22:15.868Z,20.90
2023-03-29T12:24:21.188Z,21.10
2023-03-29T12:26:41.698Z,21.40
2023-03-29T12:29:21.091Z,21.50
2023-03-29T12:31:31.648Z,21.90
2023-03-29T12:34:17.491Z,22.30
2023-03-29T12:36:49.398Z,22.20
2023-03-29T12:39:18.694Z,22.20
2023-03-29T12:41:41.563Z,22.30
2023-03-29T12:44:03.974Z,22.20
2023-03-29T12:46:26.777Z,22.40
2023-03-29T12:48:32.132Z,22.80
2023-03-29T12:50:42.825Z,23.00
2023-03-29T12:52:44.530Z,23.10
2023-03-29T12:54:55.364Z,23.10
2023-03-29T12:57:00.989Z,23.10
2023-03-29T12:59:17.569Z,23.30
2023-03-29T13:01:28.761Z,23.30
2023-03-29T13:03:41.951Z,23.60
2023-03-29T13:05:45.027Z,23.60
2023-03-29T13:07:49.013Z,24.00
2023-03-29T13:09:58.742Z,24.50
2023-03-29T13:12:15.879Z,24.70
2023-03-29T13:14:21.025Z,25.30
2023-03-29T13:16:33.587Z,26.10
2023-03-29T13:18:50.705Z,27.00
2023-03-29T13:21:17.501Z,27.70
2023-03-29T13:23:45.078Z,28.10
2023-03-29T13:25:55.766Z,28.90
2023-03-29T13:28:10.718Z,29.10
2023-03-29T13:30:24.933Z,29.00
2023-03-29T13:32:41.842Z,29.30
2023-03-29T13:34:46.477Z,29.50
2023-03-29T13:37:23.706Z,30.00
2023-03-29T13:39:30.345Z,31.30
2023-03-29T13:41:41.127Z,31.00
2023-03-29T13:43:45.793Z,30.60
2023-03-29T13:45:56.646Z,30.70
2023-03-29T13:48:37.509Z,31.10
2023-03-29T13:50:51.544Z,30.60
2023-03-29T13:53:04.020Z,30.50
2023-03-29T13:55:14.585Z,30.00
2023-03-29T13:57:19.593Z,29.80
2023-03-29T13:59:34.963Z,29.80
2023-03-29T14:01:46.653Z,29.70
2023-03-29T14:03:53.165Z,29.70
2023-03-29T14:06:01.910Z,29.50
2023-03-29T14:08:13.634Z,29.40
2023-03-29T14:10:21.218Z,29.30
2023-03-29T14:12:23.285Z,29.80
2023-03-29T14:14:27.473Z,29.40
2023-03-29T14:16:31.951Z,29.40
2023-03-29T14:18:39.506Z,29.20
2023-03-29T14:20:45.945Z,29.00
2023-03-29T14:22:48.389Z,28.80
2023-03-29T14:24:54.518Z,28.60
2023-03-29T14:26:56.567Z,28.30
2023-03-29T14:29:00.976Z,28.10
2023-03-29T14:31:02.814Z,27.90
2023-03-29T14:33:05.090Z,27.90
2023-03-29T14:35:07.461Z,27.70
2023-03-29T14:37:17.081Z,27.60
2023-03-29T14:39:21.417Z,27.70
2023-03-29T14:41:24.500Z,27.30
2023-03-29T14:43:30.904Z,26.90
2023-03-29T14:45:32.845Z,26.90
2023-03-29T14:47:35.116Z,26.70
2023-03-29T14:49:40.108Z,26.70
2023-03-29T14:51:42.139Z,26.70
2023-03-29T14:53:44.487Z,26.60
2023-03-29T14:55:50.398Z,26.50
2023-03-29T14:57:58.241Z,26.80
2023-03-29T15:00:02.397Z,26.50
2023-03-29T15:02:23.513Z,26.50
2023-03-29T15:04:35.684Z,26.50
2023-03-29T15:06:40.902Z,26.40
2023-03-29T15:08:54.432Z,26.20
2023-03-29T15:11:34.273Z,26.10
2023-03-29T15:13:41.705Z,26.20
2023-03-29T15:15:44.677Z,26.10
2023-03-29T15:17:51.175Z,26.10
2023-03-29T15:19:59.411Z,26.10
2023-03-29T15:22:11.109Z,25.90
2023-03-29T15:24:33.577Z,25.70
2023-03-29T15:26:37.487Z,25.70
2023-03-29T15:28:55.330Z,25.60
2023-03-29T15:31:10.711Z,25.70
2023-03-29T15:33:16.324Z,25.70
2023-03-29T15:35:25.563Z,25.80
2023-03-29T15:37:30.747Z,25.80
2023-03-29T15:39:32.451Z,25.70
2023-03-29T15:41:34.158Z,25.10
2023-03-29T15:43:36.146Z,25.20
2023-03-29T15:45:37.859Z,25.20
2023-03-29T15:47:39.548Z,25.20
2023-03-29T15:49:41.780Z,25.10
2023-03-29T15:51:43.674Z,24.80
2023-03-29T15:53:48.052Z,24.70
2023-03-29T15:55:55.146Z,24.70
2023-03-29T15:58:00.563Z,24.50
2023-03-29T16:00:06.187Z,24.50
2023-03-29T16:02:20.202Z,24.50
2023-03-29T16:04:22.898Z,24.50
2023-03-29T16:06:24.679Z,24.60
2023-03-29T16:08:26.354Z,24.80
2023-03-29T16:10:28.065Z,24.40
2023-03-29T16:12:29.732Z,24.40
2023-03-29T16:14:33.648Z,24.50
2023-03-29T16:16:37.768Z,24.50
2023-03-29T16:18:39.482Z,24.50
2023-03-29T16:20:41.581Z,24.50
2023-03-29T16:22:43.212Z,24.40
2023-03-29T16:24:44.860Z,24.30
2023-03-29T16:26:48.435Z,24.20
2023-03-29T16:28:50.858Z,24.30
2023-03-29T16:30:54.977Z,24.20
2023-03-29T16:32:56.730Z,24.10
2023-03-29T16:35:00.516Z,24.10
2023-03-29T16:37:02.254Z,24.00
2023-03-29T16:39:05.343Z,23.80
2023-03-29T16:41:07.462Z,24.10
2023-03-29T16:43:14.703Z,23.80
2023-03-29T16:45:19.411Z,24.00
2023-03-29T16:47:21.109Z,23.90
2023-03-29T16:49:24.100Z,23.70
2023-03-29T16:51:26.371Z,23.60
2023-03-29T16:53:28.471Z,23.70
2023-03-29T16:55:38.142Z,23.40
2023-03-29T16:57:40.135Z,23.40
2023-03-29T16:59:44.888Z,23.30
2023-03-29T17:01:46.826Z,23.50
2023-03-29T17:03:48.641Z,23.50
2023-03-29T17:05:52.090Z,23.90
2023-03-29T17:07:55.420Z,23.40
2023-03-29T17:09:58.552Z,23.40
2023-03-29T17:12:00.481Z,23.10
2023-03-29T17:14:02.279Z,23.10
2023-03-29T17:16:05.959Z,23.00
2023-03-29T17:18:08.069Z,23.10
2023-03-29T17:20:14.206Z,23.10
2023-03-29T17:22:18.709Z,23.00
2023-03-29T17:24:20.407Z,22.80
2023-03-29T17:26:22.091Z,23.00
2023-03-29T17:28:24.366Z,23.10
2023-03-29T17:30:28.602Z,23.10
2023-03-29T17:32:31.190Z,23.00
2023-03-29T17:34:34.101Z,22.80
2023-03-29T17:36:37.375Z,22.90
2023-03-29T17:38:39.067Z,22.90
2023-03-29T17:40:41.076Z,22.80
2023-03-29T17:42:44.117Z,22.70
2023-03-29T17:44:45.839Z,22.90
2023-03-29T17:46:47.710Z,22.80
2023-03-29T17:48:50.996Z,23.00
2023-03-29T17:50:57.681Z,22.90
2023-03-29T17:52:59.428Z,22.90
2023-03-29T17:55:01.517Z,22.70
2023-03-29T17:57:04.184Z,22.80
2023-03-29T17:59:05.819Z,22.70
2023-03-29T18:01:11.197Z,22.80
2023-03-29T18:03:13.051Z,22.70
2023-03-29T18:05:19.331Z,22.60
2023-03-29T18:07:21.034Z,22.70
2023-03-29T18:09:22.760Z,22.60
2023-03-29T18:11:25.569Z,22.50
2023-03-29T18:13:27.256Z,22.30
2023-03-29T18:15:31.216Z,22.40
2023-03-29T18:17:35.362Z,22.30
2023-03-29T18:19:39.570Z,22.10
2023-03-29T18:21:41.409Z,22.20
2023-03-29T18:23:47.723Z,22.00
2023-03-29T18:25:49.495Z,22.20
2023-03-29T18:27:51.271Z,22.00
2023-03-29T18:29:55.194Z,21.90
2023-03-29T18:31:57.123Z,22.00
2023-03-29T18:33:59.005Z,22.00
2023-03-29T18:36:02.545Z,22.00
2023-03-29T18:38:04.634Z,21.80
2023-03-29T18:40:08.232Z,21.80
2023-03-29T18:42:12.383Z,21.80
2023-03-29T18:44:14.665Z,21.70
2023-03-29T18:46:19.219Z,21.80
2023-03-29T18:48:21.001Z,21.80
2023-03-29T18:50:24.689Z,21.70
2023-03-29T18:52:28.682Z,21.70
2023-03-29T18:54:30.462Z,21.70
2023-03-29T18:56:33.523Z,21.50
2023-03-29T18:58:37.549Z,21.30
2023-03-29T19:00:43.402Z,21.10
2023-03-29T19:02:45.142Z,20.80
2023-03-29T19:04:46.813Z,20.40
2023-03-29T19:06:51.218Z,20.40
2023-03-29T19:08:53.970Z,20.20
2023-03-29T19:11:02.090Z,20.20
2023-03-29T19:13:06.518Z,20.10
2023-03-29T19:15:09.437Z,20.00
2023-03-29T19:17:13.625Z,19.80
2023-03-29T19:19:15.518Z,19.60
2023-03-29T19:21:20.580Z,19.30
2023-03-29T19:23:27.784Z,19.20
2023-03-29T19:25:31.609Z,19.20
2023-03-29T19:27:33.559Z,18.90
2023-03-29T19:29:35.381Z,18.60
2023-03-29T19:31:37.897Z,18.70
2023-03-29T19:33:40.660Z,18.60
2023-03-29T19:35:44.620Z,18.30
2023-03-29T19:37:46.399Z,18.20
2023-03-29T19:39:52.440Z,18.20
2023-03-29T19:41:55.006Z,18.20
2023-03-29T19:43:58.812Z,18.20
2023-03-29T19:46:07.475Z,18.10
2023-03-29T19:50:14.466Z,17.80
2023-03-29T19:52:16.176Z,17.90
2023-03-29T19:54:17.878Z,17.90
2023-03-29T19:56:20.289Z,17.90
2023-03-29T19:58:23.646Z,17.70
2023-03-29T20:00:27.996Z,17.60
2023-03-29T20:02:29.726Z,17.60
2023-03-29T20:04:33.838Z,17.60
2023-03-29T20:06:35.720Z,17.50
2023-03-29T20:08:40.807Z,17.40
2023-03-29T20:10:42.534Z,17.40
2023-03-29T20:12:48.262Z,17.50
2023-03-29T20:14:50.067Z,17.50
2023-03-29T20:16:53.955Z,17.30
2023-03-29T20:18:56.130Z,17.30
2023-03-29T20:21:01.678Z,17.30
2023-03-29T20:23:05.178Z,17.20
2023-03-29T20:25:09.291Z,17.20
2023-03-29T20:27:11.130Z,17.20
2023-03-29T20:29:16.142Z,17.10
2023-03-29T20:31:18.077Z,17.60
2023-03-29T20:33:24.725Z,17.10
2023-03-29T20:35:26.957Z,17.00
2023-03-29T20:37:28.652Z,17.10
2023-03-29T20:39:31.405Z,17.00
2023-03-29T20:41:33.688Z,17.00
2023-03-29T20:43:37.548Z,16.90
2023-03-29T20:45:51.983Z,17.10
2023-03-29T20:48:02.204Z,17.00
2023-03-29T20:50:08.711Z,16.80
2023-03-29T20:52:18.086Z,17.00
2023-03-29T20:54:19.884Z,17.10
2023-03-29T20:56:23.726Z,17.00
2023-03-29T20:58:27.219Z,17.00
2023-03-29T21:00:31.454Z,17.10
2023-03-29T21:02:33.176Z,17.00
2023-03-29T21:04:37.482Z,17.10
2023-03-29T21:06:41.718Z,17.00
2023-03-29T21:08:43.398Z,17.00
2023-03-29T21:10:47.792Z,16.90
2023-03-29T21:12:50.362Z,16.90
2023-03-29T21:14:52.115Z,17.00
2023-03-29T21:16:56.626Z,16.60
2023-03-29T21:19:00.938Z,16.80
2023-03-29T21:21:05.526Z,17.00
2023-03-29T21:23:09.610Z,16.80
2023-03-29T21:25:15.486Z,16.80
2023-03-29T21:27:18.237Z,17.00
2023-03-29T21:29:19.973Z,16.80
2023-03-29T21:31:21.793Z,17.00
2023-03-29T21:33:23.773Z,17.00
2023-03-29T21:35:25.580Z,17.10
2023-03-29T21:37:27.231Z,17.00
2023-03-29T21:39:29.119Z,16.80
2023-03-29T21:41:32.820Z,17.00
2023-03-29T21:43:34.622Z,17.00
2023-03-29T21:45:36.386Z,17.50
2023-03-29T21:47:38.133Z,16.80
2023-03-29T21:49:40.094Z,16.90
2023-03-29T21:51:44.257Z,16.70
2023-03-29T21:53:47.636Z,16.90
2023-03-29T21:55:49.793Z,16.90
2023-03-29T21:57:54.664Z,16.90
2023-03-29T21:59:56.649Z,16.90
2023-03-29T22:01:58.473Z,16.80
2023-03-29T22:04:00.534Z,16.90
2023-03-29T22:06:09.693Z,16.90
2023-03-29T22:08:11.634Z,16.80
2023-03-29T22:10:16.661Z,16.90
2023-03-29T22:12:18.720Z,16.90
2023-03-29T22:14:21.857Z,16.90
2023-03-29T22:16:25.745Z,16.90
2023-03-29T22:18:43.459Z,16.90
2023-03-29T22:20:45.130Z,17.00
2023-03-29T22:22:52.581Z,17.10
2023-03-29T22:24:55.711Z,17.30
2023-03-29T22:26:57.449Z,17.20
2023-03-29T22:29:00.569Z,17.20
2023-03-29T22:31:04.866Z,17.60
2023-03-29T22:33:06.792Z,17.70
2023-03-29T22:35:09.283Z,17.60
2023-03-29T22:37:12.246Z,17.50
2023-03-29T22:39:13.916Z,17.60
2023-03-29T22:41:19.909Z,17.70
2023-03-29T22:43:21.707Z,17.90
2023-03-29T22:45:23.435Z,17.80
2023-03-29T22:47:25.151Z,18.10
2023-03-29T22:49:27.019Z,18.20
2023-03-29T22:51:28.790Z,18.30
2023-03-29T22:53:30.865Z,18.20
2023-03-29T22:55:32.559Z,18.40
2023-03-29T22:57:34.216Z,18.50
2023-03-29T22:59:36.028Z,18.60
2023-03-29T23:01:37.885Z,18.70
2023-03-29T23:03:39.593Z,18.60
2023-03-29T23:05:41.436Z,18.80
2023-03-29T23:07:43.133Z,18.80
2023-03-29T23:09:45.097Z,19.00
2023-03-29T23:11:46.798Z,19.20
2023-03-29T23:13:48.873Z,19.10
2023-03-29T23:15:52.410Z,19.30
2023-03-29T23:17:56.398Z,19.30
2023-03-29T23:19:58.875Z,19.40
2023-03-29T23:22:00.605Z,19.40
2023-03-29T23:24:02.384Z,19.40
2023-03-29T23:26:06.793Z,19.50
2023-03-29T23:28:08.427Z,19.50
2023-03-29T23:30:14.541Z,19.70
2023-03-29T23:32:21.069Z,19.50
2023-03-29T23:34:22.861Z,19.70
2023-03-29T23:36:26.974Z,19.70
2023-03-29T23:38:28.683Z,19.50
2023-03-29T23:40:32.994Z,19.60
2023-03-29T23:42:34.719Z,19.50
2023-03-29T23:44:36.456Z,19.50
2023-03-29T23:46:38.195Z,19.50
2023-03-29T23:48:40.021Z,19.50
2023-03-29T23:50:46.224Z,19.50
2023-03-29T23:52:51.417Z,19.50
2023-03-29T23:54:53.177Z,19.30
2023-03-29T23:56:54.932Z,19.40
2023-03-29T23:58:56.639Z,19.50
